sensor_id;sensor_type;location;lat;lon;timestamp;P1;durP1;ratioP1;P2;durP2;ratioP2
72117;SDS011;59992;47.490;8.736;2024-03-23T00:54:21;2.20;;;1.20;;
72117;SDS011;59992;47.490;8.736;2024-03-23T00:57:09;2.50;;;1.40;;
72117;SDS011;59992;47.490;8.736;2024-03-23T00:59:57;2.70;;;1.50;;
72117;SDS011;59992;47.490;8.736;2024-03-23T01:02:45;2.30;;;1.30;;
72117;SDS011;59992;47.490;8.736;2024-03-23T01:05:33;3.00;;;1.30;;
72117;SDS011;59992;47.490;8.736;2024-03-23T01:08:21;1.50;;;1.00;;
72117;SDS011;59992;47.490;8.736;2024-03-23T01:11:09;1.40;;;1.00;;
72117;SDS011;59992;47.490;8.736;2024-03-23T01:13:58;4.00;;;1.50;;
72117;SDS011;59992;47.490;8.736;2024-03-23T01:16:46;2.10;;;1.20;;
72117;SDS011;59992;47.490;8.736;2024-03-23T01:19:34;3.50;;;1.40;;
72117;SDS011;59992;47.490;8.736;2024-03-23T01:22:23;3.60;;;1.30;;
72117;SDS011;59992;47.490;8.736;2024-03-23T01:25:11;2.10;;;1.30;;
72117;SDS011;59992;47.490;8.736;2024-03-23T01:28:00;2.80;;;1.40;;
72117;SDS011;59992;47.490;8.736;2024-03-23T01:30:48;4.30;;;1.40;;
72117;SDS011;59992;47.490;8.736;2024-03-23T01:33:36;2.60;;;1.50;;
72117;SDS011;59992;47.490;8.736;2024-03-23T01:36:25;3.40;;;1.80;;
72117;SDS011;59992;47.490;8.736;2024-03-23T01:39:16;2.40;;;1.30;;
72117;SDS011;59992;47.490;8.736;2024-03-23T01:42:07;3.10;;;1.80;;
72117;SDS011;59992;47.490;8.736;2024-03-23T01:44:58;4.10;;;1.30;;
72117;SDS011;59992;47.490;8.736;2024-03-23T01:47:52;4.30;;;1.50;;
72117;SDS011;59992;47.490;8.736;2024-03-23T01:50:45;2.60;;;1.20;;
72117;SDS011;59992;47.490;8.736;2024-03-23T01:53:38;3.20;;;1.40;;
72117;SDS011;59992;47.490;8.736;2024-03-23T01:56:33;2.90;;;1.20;;
72117;SDS011;59992;47.490;8.736;2024-03-23T01:59:22;2.40;;;1.20;;
72117;SDS011;59992;47.490;8.736;2024-03-23T02:02:11;2.30;;;1.30;;
72117;SDS011;59992;47.490;8.736;2024-03-23T02:05:00;1.70;;;1.20;;
72117;SDS011;59992;47.490;8.736;2024-03-23T02:07:48;3.80;;;1.40;;
72117;SDS011;59992;47.490;8.736;2024-03-23T02:10:38;2.10;;;1.20;;
72117;SDS011;59992;47.490;8.736;2024-03-23T02:13:26;6.50;;;1.50;;
72117;SDS011;59992;47.490;8.736;2024-03-23T02:16:15;3.00;;;1.30;;
72117;SDS011;59992;47.490;8.736;2024-03-23T02:19:03;4.10;;;1.40;;
72117;SDS011;59992;47.490;8.736;2024-03-23T02:21:51;2.20;;;1.20;;
72117;SDS011;59992;47.490;8.736;2024-03-23T02:24:39;8.60;;;1.50;;
72117;SDS011;59992;47.490;8.736;2024-03-23T02:27:27;1.60;;;1.30;;
72117;SDS011;59992;47.490;8.736;2024-03-23T02:30:16;2.80;;;1.40;;
72117;SDS011;59992;47.490;8.736;2024-03-23T02:33:04;3.10;;;1.20;;
72117;SDS011;59992;47.490;8.736;2024-03-23T02:35:56;2.90;;;1.10;;
72117;SDS011;59992;47.490;8.736;2024-03-23T02:38:44;2.10;;;1.20;;
72117;SDS011;59992;47.490;8.736;2024-03-23T02:41:32;2.30;;;1.30;;
72117;SDS011;59992;47.490;8.736;2024-03-23T02:44:21;3.00;;;1.40;;
72117;SDS011;59992;47.490;8.736;2024-03-23T02:47:09;3.70;;;1.80;;
72117;SDS011;59992;47.490;8.736;2024-03-23T02:49:58;2.00;;;1.10;;
72117;SDS011;59992;47.490;8.736;2024-03-23T02:52:46;2.80;;;1.30;;
72117;SDS011;59992;47.490;8.736;2024-03-23T02:55:34;2.10;;;1.10;;
72117;SDS011;59992;47.490;8.736;2024-03-23T02:58:23;1.90;;;1.10;;
72117;SDS011;59992;47.490;8.736;2024-03-23T03:01:11;1.90;;;1.20;;
72117;SDS011;59992;47.490;8.736;2024-03-23T03:04:00;2.20;;;1.30;;
72117;SDS011;59992;47.490;8.736;2024-03-23T03:06:48;4.00;;;1.60;;
72117;SDS011;59992;47.490;8.736;2024-03-23T03:09:36;2.50;;;1.40;;
72117;SDS011;59992;47.490;8.736;2024-03-23T03:12:27;2.70;;;1.20;;
72117;SDS011;59992;47.490;8.736;2024-03-23T03:15:16;1.70;;;1.00;;
72117;SDS011;59992;47.490;8.736;2024-03-23T03:18:05;3.10;;;1.10;;
72117;SDS011;59992;47.490;8.736;2024-03-23T03:20:55;3.00;;;1.50;;
72117;SDS011;59992;47.490;8.736;2024-03-23T03:23:46;2.20;;;1.20;;
72117;SDS011;59992;47.490;8.736;2024-03-23T03:26:36;2.70;;;1.30;;
72117;SDS011;59992;47.490;8.736;2024-03-23T03:29:24;2.20;;;1.20;;
72117;SDS011;59992;47.490;8.736;2024-03-23T03:32:20;1.90;;;1.00;;
72117;SDS011;59992;47.490;8.736;2024-03-23T03:35:08;2.80;;;1.40;;
72117;SDS011;59992;47.490;8.736;2024-03-23T03:37:56;2.10;;;1.00;;
72117;SDS011;59992;47.490;8.736;2024-03-23T03:40:46;2.40;;;1.10;;
72117;SDS011;59992;47.490;8.736;2024-03-23T03:43:34;2.00;;;1.10;;
72117;SDS011;59992;47.490;8.736;2024-03-23T03:46:23;1.90;;;1.10;;
72117;SDS011;59992;47.490;8.736;2024-03-23T03:49:11;2.10;;;1.30;;
72117;SDS011;59992;47.490;8.736;2024-03-23T03:52:00;2.00;;;1.30;;
72117;SDS011;59992;47.490;8.736;2024-03-23T03:54:50;2.50;;;1.20;;
72117;SDS011;59992;47.490;8.736;2024-03-23T03:57:38;2.10;;;1.30;;
72117;SDS011;59992;47.490;8.736;2024-03-23T04:00:26;2.30;;;0.90;;
72117;SDS011;59992;47.490;8.736;2024-03-23T04:03:14;1.80;;;1.20;;
72117;SDS011;59992;47.490;8.736;2024-03-23T04:06:03;1.70;;;1.10;;
72117;SDS011;59992;47.490;8.736;2024-03-23T04:08:51;2.20;;;1.30;;
72117;SDS011;59992;47.490;8.736;2024-03-23T04:11:40;2.70;;;1.40;;
72117;SDS011;59992;47.490;8.736;2024-03-23T04:14:29;2.20;;;1.20;;
72117;SDS011;59992;47.490;8.736;2024-03-23T04:17:17;4.10;;;1.10;;
72117;SDS011;59992;47.490;8.736;2024-03-23T04:20:06;1.40;;;1.10;;
72117;SDS011;59992;47.490;8.736;2024-03-23T04:22:58;2.50;;;1.10;;
72117;SDS011;59992;47.490;8.736;2024-03-23T04:25:46;2.60;;;1.30;;
72117;SDS011;59992;47.490;8.736;2024-03-23T04:28:34;4.40;;;1.40;;
72117;SDS011;59992;47.490;8.736;2024-03-23T04:31:22;2.60;;;1.20;;
72117;SDS011;59992;47.490;8.736;2024-03-23T04:34:11;2.70;;;1.50;;
72117;SDS011;59992;47.490;8.736;2024-03-23T04:36:59;1.70;;;1.10;;
72117;SDS011;59992;47.490;8.736;2024-03-23T04:39:47;3.30;;;1.20;;
72117;SDS011;59992;47.490;8.736;2024-03-23T04:42:35;2.60;;;1.20;;
72117;SDS011;59992;47.490;8.736;2024-03-23T04:45:24;2.30;;;1.10;;
72117;SDS011;59992;47.490;8.736;2024-03-23T04:48:12;2.30;;;1.20;;
72117;SDS011;59992;47.490;8.736;2024-03-23T04:51:01;2.00;;;1.10;;
72117;SDS011;59992;47.490;8.736;2024-03-23T04:53:49;2.80;;;1.40;;
72117;SDS011;59992;47.490;8.736;2024-03-23T04:56:38;2.80;;;1.40;;
72117;SDS011;59992;47.490;8.736;2024-03-23T04:59:26;2.00;;;1.20;;
72117;SDS011;59992;47.490;8.736;2024-03-23T05:02:14;2.20;;;1.10;;
72117;SDS011;59992;47.490;8.736;2024-03-23T05:05:02;3.30;;;1.40;;
72117;SDS011;59992;47.490;8.736;2024-03-23T05:07:54;2.60;;;1.30;;
72117;SDS011;59992;47.490;8.736;2024-03-23T05:10:42;6.00;;;1.70;;
72117;SDS011;59992;47.490;8.736;2024-03-23T05:13:30;5.60;;;1.70;;
72117;SDS011;59992;47.490;8.736;2024-03-23T05:16:19;2.80;;;1.40;;
72117;SDS011;59992;47.490;8.736;2024-03-23T05:19:07;4.20;;;1.50;;
72117;SDS011;59992;47.490;8.736;2024-03-23T05:21:56;2.50;;;1.20;;
72117;SDS011;59992;47.490;8.736;2024-03-23T05:24:45;3.70;;;1.50;;
72117;SDS011;59992;47.490;8.736;2024-03-23T05:27:33;3.50;;;1.10;;
72117;SDS011;59992;47.490;8.736;2024-03-23T05:30:23;2.80;;;1.50;;
72117;SDS011;59992;47.490;8.736;2024-03-23T05:33:11;2.40;;;1.30;;
72117;SDS011;59992;47.490;8.736;2024-03-23T05:36:00;7.60;;;2.20;;
72117;SDS011;59992;47.490;8.736;2024-03-23T05:38:50;3.00;;;1.50;;
72117;SDS011;59992;47.490;8.736;2024-03-23T05:41:38;3.60;;;1.50;;
72117;SDS011;59992;47.490;8.736;2024-03-23T05:44:28;3.80;;;1.90;;
72117;SDS011;59992;47.490;8.736;2024-03-23T05:47:18;4.20;;;2.20;;
72117;SDS011;59992;47.490;8.736;2024-03-23T05:50:06;4.70;;;2.30;;
72117;SDS011;59992;47.490;8.736;2024-03-23T05:52:57;3.70;;;1.80;;
72117;SDS011;59992;47.490;8.736;2024-03-23T05:55:45;2.60;;;1.90;;
72117;SDS011;59992;47.490;8.736;2024-03-23T05:58:34;4.20;;;1.90;;
72117;SDS011;59992;47.490;8.736;2024-03-23T06:01:22;4.80;;;2.00;;
72117;SDS011;59992;47.490;8.736;2024-03-23T06:04:10;4.20;;;1.70;;
72117;SDS011;59992;47.490;8.736;2024-03-23T06:06:59;5.90;;;2.10;;
72117;SDS011;59992;47.490;8.736;2024-03-23T06:09:48;4.30;;;2.00;;
72117;SDS011;59992;47.490;8.736;2024-03-23T06:12:37;4.30;;;2.10;;
72117;SDS011;59992;47.490;8.736;2024-03-23T06:15:25;3.90;;;2.20;;
72117;SDS011;59992;47.490;8.736;2024-03-23T06:18:14;3.90;;;2.20;;
72117;SDS011;59992;47.490;8.736;2024-03-23T06:21:03;5.40;;;2.50;;
72117;SDS011;59992;47.490;8.736;2024-03-23T06:23:52;4.60;;;2.80;;
72117;SDS011;59992;47.490;8.736;2024-03-23T06:26:40;4.30;;;2.60;;
72117;SDS011;59992;47.490;8.736;2024-03-23T06:29:28;4.10;;;2.50;;
72117;SDS011;59992;47.490;8.736;2024-03-23T06:32:16;4.00;;;2.60;;
72117;SDS011;59992;47.490;8.736;2024-03-23T06:35:06;4.50;;;2.80;;
72117;SDS011;59992;47.490;8.736;2024-03-23T06:37:55;6.30;;;2.90;;
72117;SDS011;59992;47.490;8.736;2024-03-23T06:40:43;5.80;;;2.90;;
72117;SDS011;59992;47.490;8.736;2024-03-23T06:43:34;6.40;;;3.20;;
72117;SDS011;59992;47.490;8.736;2024-03-23T06:46:22;3.90;;;2.50;;
72117;SDS011;59992;47.490;8.736;2024-03-23T06:49:10;4.30;;;2.70;;
72117;SDS011;59992;47.490;8.736;2024-03-23T06:51:58;8.20;;;3.10;;
72117;SDS011;59992;47.490;8.736;2024-03-23T06:54:47;5.50;;;2.90;;
72117;SDS011;59992;47.490;8.736;2024-03-23T06:57:35;4.90;;;2.80;;
72117;SDS011;59992;47.490;8.736;2024-03-23T07:00:24;5.40;;;3.10;;
72117;SDS011;59992;47.490;8.736;2024-03-23T07:03:13;4.30;;;2.70;;
72117;SDS011;59992;47.490;8.736;2024-03-23T07:06:01;4.40;;;2.70;;
72117;SDS011;59992;47.490;8.736;2024-03-23T07:08:49;5.10;;;2.90;;
72117;SDS011;59992;47.490;8.736;2024-03-23T07:11:38;4.80;;;2.90;;
72117;SDS011;59992;47.490;8.736;2024-03-23T07:14:26;4.10;;;2.50;;
72117;SDS011;59992;47.490;8.736;2024-03-23T07:17:14;4.50;;;2.20;;
72117;SDS011;59992;47.490;8.736;2024-03-23T07:20:05;3.10;;;1.90;;
72117;SDS011;59992;47.490;8.736;2024-03-23T07:22:56;4.30;;;2.50;;
72117;SDS011;59992;47.490;8.736;2024-03-23T07:25:45;4.10;;;2.50;;
72117;SDS011;59992;47.490;8.736;2024-03-23T07:28:43;3.40;;;2.20;;
72117;SDS011;59992;47.490;8.736;2024-03-23T07:31:32;4.60;;;2.30;;
72117;SDS011;59992;47.490;8.736;2024-03-23T07:34:21;3.60;;;2.10;;
72117;SDS011;59992;47.490;8.736;2024-03-23T07:37:10;4.20;;;2.10;;
72117;SDS011;59992;47.490;8.736;2024-03-23T07:39:58;5.80;;;2.80;;
72117;SDS011;59992;47.490;8.736;2024-03-23T07:42:46;5.80;;;2.70;;
72117;SDS011;59992;47.490;8.736;2024-03-23T07:45:34;4.20;;;2.20;;
72117;SDS011;59992;47.490;8.736;2024-03-23T07:48:24;5.10;;;2.60;;
72117;SDS011;59992;47.490;8.736;2024-03-23T07:51:15;4.40;;;2.50;;
72117;SDS011;59992;47.490;8.736;2024-03-23T07:54:04;4.50;;;2.40;;
72117;SDS011;59992;47.490;8.736;2024-03-23T07:56:52;4.70;;;2.40;;
72117;SDS011;59992;47.490;8.736;2024-03-23T07:59:41;5.20;;;3.00;;
72117;SDS011;59992;47.490;8.736;2024-03-23T08:02:29;3.50;;;2.30;;
72117;SDS011;59992;47.490;8.736;2024-03-23T08:05:17;3.90;;;2.60;;
72117;SDS011;59992;47.490;8.736;2024-03-23T08:08:05;4.10;;;1.80;;
72117;SDS011;59992;47.490;8.736;2024-03-23T08:10:53;3.60;;;1.80;;
72117;SDS011;59992;47.490;8.736;2024-03-23T08:13:41;3.70;;;1.40;;
72117;SDS011;59992;47.490;8.736;2024-03-23T08:16:32;2.20;;;1.40;;
72117;SDS011;59992;47.490;8.736;2024-03-23T08:19:20;2.20;;;1.30;;
72117;SDS011;59992;47.490;8.736;2024-03-23T08:22:09;2.40;;;1.00;;
72117;SDS011;59992;47.490;8.736;2024-03-23T08:24:57;1.10;;;0.80;;
72117;SDS011;59992;47.490;8.736;2024-03-23T08:27:44;1.40;;;0.80;;
72117;SDS011;59992;47.490;8.736;2024-03-23T08:30:34;1.10;;;0.80;;
72117;SDS011;59992;47.490;8.736;2024-03-23T08:33:23;1.20;;;0.70;;
72117;SDS011;59992;47.490;8.736;2024-03-23T08:36:11;0.70;;;0.50;;
72117;SDS011;59992;47.490;8.736;2024-03-23T08:39:00;1.00;;;0.50;;
72117;SDS011;59992;47.490;8.736;2024-03-23T08:41:48;0.60;;;0.50;;
72117;SDS011;59992;47.490;8.736;2024-03-23T08:44:38;1.80;;;0.60;;
72117;SDS011;59992;47.490;8.736;2024-03-23T08:47:27;0.80;;;0.70;;
72117;SDS011;59992;47.490;8.736;2024-03-23T08:50:15;1.00;;;0.60;;
72117;SDS011;59992;47.490;8.736;2024-03-23T08:53:05;1.00;;;0.50;;
72117;SDS011;59992;47.490;8.736;2024-03-23T08:55:53;0.50;;;0.50;;
72117;SDS011;59992;47.490;8.736;2024-03-23T08:58:41;0.80;;;0.50;;
72117;SDS011;59992;47.490;8.736;2024-03-23T09:01:30;2.20;;;0.60;;
72117;SDS011;59992;47.490;8.736;2024-03-23T09:04:18;1.10;;;0.40;;
72117;SDS011;59992;47.490;8.736;2024-03-23T09:07:06;0.70;;;0.40;;
72117;SDS011;59992;47.490;8.736;2024-03-23T09:09:54;1.10;;;0.50;;
72117;SDS011;59992;47.490;8.736;2024-03-23T09:12:43;1.70;;;0.50;;
72117;SDS011;59992;47.490;8.736;2024-03-23T09:15:31;2.00;;;0.80;;
72117;SDS011;59992;47.490;8.736;2024-03-23T09:18:20;2.00;;;0.70;;
72117;SDS011;59992;47.490;8.736;2024-03-23T09:21:11;0.50;;;0.40;;
72117;SDS011;59992;47.490;8.736;2024-03-23T09:23:59;1.70;;;0.50;;
72117;SDS011;59992;47.490;8.736;2024-03-23T09:26:47;1.70;;;0.50;;
72117;SDS011;59992;47.490;8.736;2024-03-23T09:29:35;2.40;;;0.80;;
72117;SDS011;59992;47.490;8.736;2024-03-23T09:32:24;2.30;;;0.60;;
72117;SDS011;59992;47.490;8.736;2024-03-23T09:35:12;2.70;;;0.60;;
72117;SDS011;59992;47.490;8.736;2024-03-23T09:38:00;4.40;;;0.80;;
72117;SDS011;59992;47.490;8.736;2024-03-23T09:40:48;2.10;;;0.80;;
72117;SDS011;59992;47.490;8.736;2024-03-23T09:43:39;3.80;;;1.00;;
72117;SDS011;59992;47.490;8.736;2024-03-23T09:46:28;3.20;;;0.80;;
72117;SDS011;59992;47.490;8.736;2024-03-23T09:49:21;4.50;;;1.20;;
72117;SDS011;59992;47.490;8.736;2024-03-23T09:52:09;3.10;;;0.80;;
72117;SDS011;59992;47.490;8.736;2024-03-23T09:54:57;2.00;;;0.90;;
72117;SDS011;59992;47.490;8.736;2024-03-23T09:57:45;5.50;;;1.20;;
72117;SDS011;59992;47.490;8.736;2024-03-23T10:00:33;3.40;;;0.90;;
72117;SDS011;59992;47.490;8.736;2024-03-23T10:03:22;5.30;;;0.90;;
72117;SDS011;59992;47.490;8.736;2024-03-23T10:06:10;3.70;;;0.90;;
72117;SDS011;59992;47.490;8.736;2024-03-23T10:08:57;7.10;;;1.40;;
72117;SDS011;59992;47.490;8.736;2024-03-23T10:11:45;5.00;;;1.30;;
72117;SDS011;59992;47.490;8.736;2024-03-23T10:14:36;5.60;;;1.20;;
72117;SDS011;59992;47.490;8.736;2024-03-23T10:17:24;3.40;;;1.20;;
72117;SDS011;59992;47.490;8.736;2024-03-23T10:20:12;5.30;;;1.20;;
72117;SDS011;59992;47.490;8.736;2024-03-23T10:23:06;3.80;;;1.00;;
72117;SDS011;59992;47.490;8.736;2024-03-23T10:26:14;5.80;;;1.60;;
72117;SDS011;59992;47.490;8.736;2024-03-23T10:29:04;2.20;;;0.80;;
72117;SDS011;59992;47.490;8.736;2024-03-23T10:32:07;4.20;;;1.00;;
72117;SDS011;59992;47.490;8.736;2024-03-23T10:34:56;4.50;;;1.00;;
72117;SDS011;59992;47.490;8.736;2024-03-23T10:38:00;3.00;;;1.00;;
72117;SDS011;59992;47.490;8.736;2024-03-23T10:40:51;5.70;;;1.20;;
72117;SDS011;59992;47.490;8.736;2024-03-23T10:43:41;4.50;;;1.40;;
72117;SDS011;59992;47.490;8.736;2024-03-23T10:46:32;4.80;;;1.00;;
72117;SDS011;59992;47.490;8.736;2024-03-23T10:49:20;4.70;;;1.20;;
72117;SDS011;59992;47.490;8.736;2024-03-23T10:52:09;4.00;;;1.10;;
72117;SDS011;59992;47.490;8.736;2024-03-23T10:54:57;4.50;;;1.00;;
72117;SDS011;59992;47.490;8.736;2024-03-23T10:57:49;5.10;;;1.20;;
72117;SDS011;59992;47.490;8.736;2024-03-23T11:00:40;2.50;;;1.60;;
72117;SDS011;59992;47.490;8.736;2024-03-23T11:03:32;6.50;;;1.30;;
72117;SDS011;59992;47.490;8.736;2024-03-23T11:06:34;4.30;;;1.10;;
72117;SDS011;59992;47.490;8.736;2024-03-23T11:09:38;5.80;;;0.90;;
72117;SDS011;59992;47.490;8.736;2024-03-23T11:12:30;4.00;;;0.80;;
72117;SDS011;59992;47.490;8.736;2024-03-23T11:15:20;2.30;;;0.80;;
72117;SDS011;59992;47.490;8.736;2024-03-23T11:18:08;4.30;;;0.80;;
72117;SDS011;59992;47.490;8.736;2024-03-23T11:20:56;2.70;;;0.70;;
72117;SDS011;59992;47.490;8.736;2024-03-23T11:23:44;3.20;;;0.80;;
72117;SDS011;59992;47.490;8.736;2024-03-23T11:26:32;3.80;;;0.60;;
72117;SDS011;59992;47.490;8.736;2024-03-23T11:29:26;4.30;;;0.80;;
72117;SDS011;59992;47.490;8.736;2024-03-23T11:32:17;4.00;;;0.80;;
72117;SDS011;59992;47.490;8.736;2024-03-23T11:35:06;5.40;;;1.00;;
72117;SDS011;59992;47.490;8.736;2024-03-23T11:38:09;3.40;;;0.80;;
72117;SDS011;59992;47.490;8.736;2024-03-23T11:41:02;3.50;;;0.80;;
72117;SDS011;59992;47.490;8.736;2024-03-23T11:43:52;3.10;;;0.80;;
72117;SDS011;59992;47.490;8.736;2024-03-23T11:46:41;3.40;;;0.80;;
72117;SDS011;59992;47.490;8.736;2024-03-23T11:49:29;6.60;;;0.80;;
72117;SDS011;59992;47.490;8.736;2024-03-23T11:52:17;5.50;;;1.20;;
72117;SDS011;59992;47.490;8.736;2024-03-23T11:55:06;5.20;;;0.70;;
72117;SDS011;59992;47.490;8.736;2024-03-23T11:57:54;4.90;;;0.90;;
72117;SDS011;59992;47.490;8.736;2024-03-23T12:00:48;2.90;;;0.80;;
72117;SDS011;59992;47.490;8.736;2024-03-23T12:03:37;4.30;;;0.80;;
72117;SDS011;59992;47.490;8.736;2024-03-23T12:06:25;4.60;;;1.00;;
72117;SDS011;59992;47.490;8.736;2024-03-23T12:09:14;5.40;;;0.70;;
72117;SDS011;59992;47.490;8.736;2024-03-23T12:12:08;3.80;;;0.70;;
72117;SDS011;59992;47.490;8.736;2024-03-23T12:15:02;3.20;;;0.70;;
72117;SDS011;59992;47.490;8.736;2024-03-23T12:17:52;5.40;;;1.00;;
72117;SDS011;59992;47.490;8.736;2024-03-23T12:20:55;4.30;;;0.70;;
72117;SDS011;59992;47.490;8.736;2024-03-23T12:23:43;3.90;;;0.70;;
72117;SDS011;59992;47.490;8.736;2024-03-23T12:26:33;4.40;;;1.10;;
72117;SDS011;59992;47.490;8.736;2024-03-23T12:29:26;4.10;;;0.70;;
72117;SDS011;59992;47.490;8.736;2024-03-23T12:32:16;3.40;;;0.70;;
72117;SDS011;59992;47.490;8.736;2024-03-23T12:35:05;3.10;;;1.40;;
72117;SDS011;59992;47.490;8.736;2024-03-23T12:37:55;2.60;;;1.10;;
72117;SDS011;59992;47.490;8.736;2024-03-23T12:40:47;2.10;;;0.70;;
72117;SDS011;59992;47.490;8.736;2024-03-23T12:43:35;4.50;;;1.20;;
72117;SDS011;59992;47.490;8.736;2024-03-23T12:46:24;4.00;;;0.80;;
72117;SDS011;59992;47.490;8.736;2024-03-23T12:49:12;4.30;;;1.10;;
72117;SDS011;59992;47.490;8.736;2024-03-23T12:52:00;3.60;;;0.70;;
72117;SDS011;59992;47.490;8.736;2024-03-23T12:54:51;4.20;;;0.80;;
72117;SDS011;59992;47.490;8.736;2024-03-23T12:57:41;2.20;;;0.80;;
72117;SDS011;59992;47.490;8.736;2024-03-23T13:00:29;2.90;;;0.90;;
72117;SDS011;59992;47.490;8.736;2024-03-23T13:03:17;4.90;;;1.10;;
72117;SDS011;59992;47.490;8.736;2024-03-23T13:06:05;2.70;;;0.90;;
72117;SDS011;59992;47.490;8.736;2024-03-23T13:08:54;4.00;;;0.80;;
72117;SDS011;59992;47.490;8.736;2024-03-23T13:11:42;5.30;;;0.90;;
72117;SDS011;59992;47.490;8.736;2024-03-23T13:14:31;3.50;;;1.00;;
72117;SDS011;59992;47.490;8.736;2024-03-23T13:17:19;5.80;;;0.80;;
72117;SDS011;59992;47.490;8.736;2024-03-23T13:20:08;2.80;;;0.70;;
72117;SDS011;59992;47.490;8.736;2024-03-23T13:23:00;3.20;;;0.70;;
72117;SDS011;59992;47.490;8.736;2024-03-23T13:25:52;4.30;;;0.90;;
72117;SDS011;59992;47.490;8.736;2024-03-23T13:28:40;3.90;;;0.70;;
72117;SDS011;59992;47.490;8.736;2024-03-23T13:31:28;2.50;;;0.60;;
72117;SDS011;59992;47.490;8.736;2024-03-23T13:34:16;2.90;;;0.70;;
72117;SDS011;59992;47.490;8.736;2024-03-23T13:37:05;4.30;;;0.70;;
72117;SDS011;59992;47.490;8.736;2024-03-23T13:39:54;4.50;;;1.40;;
72117;SDS011;59992;47.490;8.736;2024-03-23T13:42:42;5.60;;;1.00;;
72117;SDS011;59992;47.490;8.736;2024-03-23T13:45:30;4.50;;;1.00;;
72117;SDS011;59992;47.490;8.736;2024-03-23T13:48:18;3.50;;;0.70;;
72117;SDS011;59992;47.490;8.736;2024-03-23T13:51:07;1.60;;;0.70;;
72117;SDS011;59992;47.490;8.736;2024-03-23T13:53:55;3.80;;;0.90;;
72117;SDS011;59992;47.490;8.736;2024-03-23T13:56:48;3.70;;;1.10;;
72117;SDS011;59992;47.490;8.736;2024-03-23T13:59:36;3.40;;;0.90;;
72117;SDS011;59992;47.490;8.736;2024-03-23T14:02:24;3.80;;;1.00;;
72117;SDS011;59992;47.490;8.736;2024-03-23T14:05:12;3.70;;;0.80;;
72117;SDS011;59992;47.490;8.736;2024-03-23T14:08:00;5.10;;;0.80;;
72117;SDS011;59992;47.490;8.736;2024-03-23T14:10:49;3.40;;;0.70;;
72117;SDS011;59992;47.490;8.736;2024-03-23T14:13:40;2.30;;;0.80;;
72117;SDS011;59992;47.490;8.736;2024-03-23T14:16:29;3.90;;;0.70;;
72117;SDS011;59992;47.490;8.736;2024-03-23T14:19:17;2.00;;;0.60;;
72117;SDS011;59992;47.490;8.736;2024-03-23T14:22:06;3.80;;;0.80;;
72117;SDS011;59992;47.490;8.736;2024-03-23T14:24:54;3.50;;;0.80;;
72117;SDS011;59992;47.490;8.736;2024-03-23T14:27:44;4.10;;;0.60;;
72117;SDS011;59992;47.490;8.736;2024-03-23T14:30:32;4.40;;;0.90;;
72117;SDS011;59992;47.490;8.736;2024-03-23T14:33:20;4.70;;;1.10;;
72117;SDS011;59992;47.490;8.736;2024-03-23T14:36:08;4.80;;;0.90;;
72117;SDS011;59992;47.490;8.736;2024-03-23T14:38:56;5.10;;;0.70;;
72117;SDS011;59992;47.490;8.736;2024-03-23T14:41:44;1.50;;;0.70;;
72117;SDS011;59992;47.490;8.736;2024-03-23T14:44:32;4.00;;;1.10;;
72117;SDS011;59992;47.490;8.736;2024-03-23T14:47:21;4.70;;;1.00;;
72117;SDS011;59992;47.490;8.736;2024-03-23T14:50:09;3.40;;;0.70;;
72117;SDS011;59992;47.490;8.736;2024-03-23T14:53:02;2.80;;;0.70;;
72117;SDS011;59992;47.490;8.736;2024-03-23T14:55:50;5.00;;;0.70;;
72117;SDS011;59992;47.490;8.736;2024-03-23T14:58:37;2.40;;;0.70;;
72117;SDS011;59992;47.490;8.736;2024-03-23T15:01:26;1.70;;;0.50;;
72117;SDS011;59992;47.490;8.736;2024-03-23T15:04:14;5.00;;;0.80;;
72117;SDS011;59992;47.490;8.736;2024-03-23T15:07:03;2.80;;;0.80;;
72117;SDS011;59992;47.490;8.736;2024-03-23T15:09:51;2.60;;;1.00;;
72117;SDS011;59992;47.490;8.736;2024-03-23T15:12:40;1.70;;;0.60;;
72117;SDS011;59992;47.490;8.736;2024-03-23T15:15:30;3.50;;;0.50;;
72117;SDS011;59992;47.490;8.736;2024-03-23T15:18:18;2.20;;;0.60;;
72117;SDS011;59992;47.490;8.736;2024-03-23T15:21:12;2.30;;;0.50;;
72117;SDS011;59992;47.490;8.736;2024-03-23T15:24:06;2.90;;;0.70;;
72117;SDS011;59992;47.490;8.736;2024-03-23T15:26:57;4.30;;;0.60;;
72117;SDS011;59992;47.490;8.736;2024-03-23T15:29:46;5.20;;;0.50;;
72117;SDS011;59992;47.490;8.736;2024-03-23T15:32:34;4.10;;;0.80;;
72117;SDS011;59992;47.490;8.736;2024-03-23T15:35:23;3.20;;;0.70;;
72117;SDS011;59992;47.490;8.736;2024-03-23T15:38:11;2.70;;;0.70;;
72117;SDS011;59992;47.490;8.736;2024-03-23T15:40:59;2.80;;;0.60;;
72117;SDS011;59992;47.490;8.736;2024-03-23T15:43:48;1.70;;;0.40;;
72117;SDS011;59992;47.490;8.736;2024-03-23T15:46:36;1.50;;;0.50;;
72117;SDS011;59992;47.490;8.736;2024-03-23T15:49:25;2.30;;;0.50;;
72117;SDS011;59992;47.490;8.736;2024-03-23T15:52:16;2.90;;;0.80;;
72117;SDS011;59992;47.490;8.736;2024-03-23T15:55:06;3.10;;;0.60;;
72117;SDS011;59992;47.490;8.736;2024-03-23T15:57:57;3.00;;;0.50;;
72117;SDS011;59992;47.490;8.736;2024-03-23T16:00:45;2.50;;;0.50;;
72117;SDS011;59992;47.490;8.736;2024-03-23T16:03:41;1.40;;;0.50;;
72117;SDS011;59992;47.490;8.736;2024-03-23T16:06:29;1.80;;;0.50;;
72117;SDS011;59992;47.490;8.736;2024-03-23T16:09:17;3.20;;;0.60;;
72117;SDS011;59992;47.490;8.736;2024-03-23T16:12:05;1.90;;;0.60;;
72117;SDS011;59992;47.490;8.736;2024-03-23T16:14:53;3.00;;;0.60;;
72117;SDS011;59992;47.490;8.736;2024-03-23T16:17:41;2.60;;;0.80;;
72117;SDS011;59992;47.490;8.736;2024-03-23T16:20:29;4.00;;;0.70;;
72117;SDS011;59992;47.490;8.736;2024-03-23T16:23:20;2.30;;;0.60;;
72117;SDS011;59992;47.490;8.736;2024-03-23T16:26:08;1.20;;;0.50;;
72117;SDS011;59992;47.490;8.736;2024-03-23T16:28:57;2.50;;;0.70;;
72117;SDS011;59992;47.490;8.736;2024-03-23T16:31:48;4.70;;;0.80;;
72117;SDS011;59992;47.490;8.736;2024-03-23T16:34:36;3.00;;;0.60;;
72117;SDS011;59992;47.490;8.736;2024-03-23T16:37:25;2.70;;;0.50;;
72117;SDS011;59992;47.490;8.736;2024-03-23T16:40:13;1.80;;;0.60;;
72117;SDS011;59992;47.490;8.736;2024-03-23T16:43:01;4.40;;;0.90;;
72117;SDS011;59992;47.490;8.736;2024-03-23T16:45:53;2.50;;;0.70;;
72117;SDS011;59992;47.490;8.736;2024-03-23T16:48:42;1.50;;;0.90;;
72117;SDS011;59992;47.490;8.736;2024-03-23T16:51:31;2.00;;;0.70;;
72117;SDS011;59992;47.490;8.736;2024-03-23T16:54:19;4.20;;;1.30;;
72117;SDS011;59992;47.490;8.736;2024-03-23T16:57:07;2.90;;;1.00;;
72117;SDS011;59992;47.490;8.736;2024-03-23T16:59:55;4.40;;;0.90;;
72117;SDS011;59992;47.490;8.736;2024-03-23T17:02:43;4.60;;;1.10;;
72117;SDS011;59992;47.490;8.736;2024-03-23T17:05:38;2.80;;;0.80;;
72117;SDS011;59992;47.490;8.736;2024-03-23T17:08:26;2.30;;;0.70;;
72117;SDS011;59992;47.490;8.736;2024-03-23T17:11:14;1.90;;;0.70;;
72117;SDS011;59992;47.490;8.736;2024-03-23T17:14:04;1.50;;;0.80;;
72117;SDS011;59992;47.490;8.736;2024-03-23T17:16:53;3.10;;;0.70;;
72117;SDS011;59992;47.490;8.736;2024-03-23T17:19:42;4.50;;;1.20;;
72117;SDS011;59992;47.490;8.736;2024-03-23T17:22:31;3.20;;;0.70;;
72117;SDS011;59992;47.490;8.736;2024-03-23T17:25:19;3.80;;;1.20;;
72117;SDS011;59992;47.490;8.736;2024-03-23T17:28:07;4.00;;;1.10;;
72117;SDS011;59992;47.490;8.736;2024-03-23T17:30:59;5.50;;;1.00;;
72117;SDS011;59992;47.490;8.736;2024-03-23T17:33:49;2.30;;;0.90;;
72117;SDS011;59992;47.490;8.736;2024-03-23T17:36:38;3.60;;;0.70;;
72117;SDS011;59992;47.490;8.736;2024-03-23T17:39:26;2.70;;;0.70;;
72117;SDS011;59992;47.490;8.736;2024-03-23T17:42:18;3.00;;;0.90;;
72117;SDS011;59992;47.490;8.736;2024-03-23T17:45:07;3.80;;;1.20;;
72117;SDS011;59992;47.490;8.736;2024-03-23T17:47:57;5.10;;;1.30;;
72117;SDS011;59992;47.490;8.736;2024-03-23T17:50:45;1.60;;;0.60;;
72117;SDS011;59992;47.490;8.736;2024-03-23T17:53:37;2.20;;;0.80;;